Time;durP1;ratioP1;P1;durP2;ratioP2;P2;SDS_P1;SDS_P2;PMS_P1;PMS_P2;Temp;Humidity;BMP_temperature;BMP_pressure;BME280_temperature;BME280_humidity;BME280_pressure;Samples;Min_cycle;Max_cycle;Signal;HPM_P1;HPM_P2
2022/10/11 00:00:50;;;;;;;21.83;5.43;;;;;;;8.09;100.00;100055.75;4966440;28;20026;-88
2022/10/11 00:03:16;;;;;;;31.70;5.85;;;;;;;7.82;100.00;100036.63;4982699;28;20100;-87
2022/10/11 00:05:45;;;;;;;34.58;5.38;;;;;;;7.85;100.00;100041.53;4983120;28;20034;-87
2022/10/11 00:08:12;;;;;;;23.45;5.07;;;;;;;7.78;100.00;100020.41;4982594;28;20096;-89
2022/10/11 00:10:38;;;;;;;23.70;5.63;;;;;;;7.77;100.00;100023.19;4983982;28;20121;-88
2022/10/11 00:13:05;;;;;;;32.13;6.20;;;;;;;7.94;100.00;100058.13;4983250;28;20497;-89
2022/10/11 00:15:31;;;;;;;33.40;5.63;;;;;;;7.88;100.00;100045.66;4966539;28;20038;-86
2022/10/11 00:17:57;;;;;;;24.73;5.78;;;;;;;7.55;100.00;100025.28;4983107;28;20485;-88
2022/10/11 00:20:23;;;;;;;36.80;6.05;;;;;;;7.57;100.00;100028.59;4983027;28;20030;-88
2022/10/11 00:22:48;;;;;;;26.50;7.20;;;;;;;7.68;100.00;100030.16;4967322;28;20402;-87
2022/10/11 00:25:16;;;;;;;35.70;7.40;;;;;;;7.70;100.00;100033.44;5000495;28;20529;-87
2022/10/11 00:27:46;;;;;;;31.02;6.63;;;;;;;7.70;100.00;100030.81;4966262;28;20052;-88
2022/10/11 00:30:12;;;;;;;25.23;6.18;;;;;;;7.79;100.00;100053.41;4966258;28;20132;-90
2022/10/11 00:32:39;;;;;;;29.65;6.40;;;;;;;7.84;100.00;100061.63;4966193;28;20034;-91
2022/10/11 00:35:06;;;;;;;28.13;6.72;;;;;;;7.58;100.00;100019.78;4965734;28;20027;-86
2022/10/11 00:37:33;;;;;;;27.55;6.03;;;;;;;7.41;100.00;99992.69;4965581;28;20495;-87
2022/10/11 00:39:59;;;;;;;33.17;7.47;;;;;;;7.48;100.00;100025.09;4981291;28;20041;-87
2022/10/11 00:42:25;;;;;;;32.58;8.02;;;;;;;7.63;100.00;100053.28;4981634;28;20041;-86
2022/10/11 00:44:51;;;;;;;34.15;7.32;;;;;;;7.46;100.00;100026.19;4965592;28;20405;-87
2022/10/11 00:47:19;;;;;;;32.88;7.63;;;;;;;7.62;100.00;100030.72;4982017;28;20030;-87
2022/10/11 00:49:52;;;;;;;31.65;7.68;;;;;;;7.50;100.00;100010.09;4982062;28;20037;-86
2022/10/11 00:52:36;;;;;;;32.55;7.32;;;;;;;7.54;100.00;100024.47;4982345;28;20045;-90
2022/10/11 00:55:06;;;;;;;29.85;7.20;;;;;;;7.67;100.00;100023.28;4965771;28;20092;-86
2022/10/11 00:57:35;;;;;;;24.08;5.70;;;;;;;7.81;100.00;100041.00;4981640;28;20035;-87
2022/10/11 01:00:05;;;;;;;20.35;6.05;;;;;;;7.76;100.00;100053.72;4966000;28;20496;-88
2022/10/11 01:02:30;;;;;;;24.77;5.68;;;;;;;7.64;100.00;100034.00;4981391;28;20096;-88
2022/10/11 01:04:56;;;;;;;35.38;6.07;;;;;;;7.69;100.00;100048.28;4981617;28;20120;-86
2022/10/11 01:07:22;;;;;;;19.27;5.03;;;;;;;7.37;100.00;100001.78;4981445;28;20038;-87
2022/10/11 01:09:48;;;;;;;27.98;6.57;;;;;;;7.54;100.00;100042.75;4965779;28;20038;-86
2022/10/11 01:12:18;;;;;;;20.65;5.90;;;;;;;7.69;100.00;100052.69;4981264;28;20069;-88
2022/10/11 01:15:12;;;;;;;26.92;6.57;;;;;;;7.69;100.00;100050.09;4998847;28;20045;-86
2022/10/11 01:18:06;;;;;;;19.83;5.63;;;;;;;7.72;100.00;100044.56;4981293;28;20381;-86
2022/10/11 01:20:58;;;;;;;29.25;5.95;;;;;;;7.71;100.00;100035.06;4960024;28;20049;-87
2022/10/11 01:23:51;;;;;;;23.45;5.75;;;;;;;7.82;100.00;100041.84;4963870;28;20075;-87
2022/10/11 01:26:29;;;;;;;25.00;5.03;;;;;;;7.74;100.00;100045.22;4993003;28;20038;-86
2022/10/11 01:29:13;;;;;;;30.67;7.10;;;;;;;7.78;100.00;100045.75;4979066;28;20366;-85
2022/10/11 01:31:39;;;;;;;22.45;6.03;;;;;;;7.80;100.00;100049.84;4962540;28;20066;-86
2022/10/11 01:34:12;;;;;;;28.63;5.50;;;;;;;7.53;100.00;100001.94;4996818;28;20064;-85
2022/10/11 01:37:03;;;;;;;23.33;4.82;;;;;;;7.58;100.00;100017.97;4979691;28;20381;-86
2022/10/11 01:39:50;;;;;;;25.73;5.15;;;;;;;7.63;100.00;100017.53;4964295;28;20038;-89
2022/10/11 01:42:18;;;;;;;16.13;4.43;;;;;;;7.72;100.00;100041.94;4997406;28;20096;-89
2022/10/11 01:44:47;;;;;;;19.40;4.95;;;;;;;7.54;100.00;100019.25;4997695;28;20037;-86
2022/10/11 01:47:18;;;;;;;24.27;5.18;;;;;;;7.63;100.00;100043.66;4980407;28;20030;-87
2022/10/11 01:49:44;;;;;;;14.23;3.65;;;;;;;7.42;100.00;100023.06;4964091;28;20480;-87
2022/10/11 01:52:11;;;;;;;18.50;4.53;;;;;;;7.47;100.00;100040.91;4979931;28;20035;-87
2022/10/11 01:54:40;;;;;;;13.35;3.83;;;;;;;7.41;100.00;100037.09;4997643;28;20089;-87
2022/10/11 01:57:54;;;;;;;15.32;4.53;;;;;;;7.42;100.00;100041.34;4997604;28;20440;-88
2022/10/11 02:00:23;;;;;;;21.60;4.45;;;;;;;7.27;100.00;100022.75;4978897;28;20034;-88
2022/10/11 02:03:11;;;;;;;16.83;3.65;;;;;;;7.24;100.00;100031.69;4980173;28;20026;-89
2022/10/11 02:05:58;;;;;;;15.63;3.88;;;;;;;7.19;100.00;100026.09;4979756;28;20081;-88
2022/10/11 02:08:44;;;;;;;13.60;4.10;;;;;;;7.20;100.00;100035.59;4969452;28;20108;-88
2022/10/11 02:11:26;;;;;;;22.23;3.95;;;;;;;6.98;100.00;100016.75;4997477;28;20034;-86
2022/10/11 02:14:14;;;;;;;26.33;4.32;;;;;;;6.93;100.00;100005.94;4997021;28;20033;-87
2022/10/11 02:16:46;;;;;;;24.52;4.50;;;;;;;7.04;100.00;100033.63;4979321;28;20502;-89
2022/10/11 02:19:17;;;;;;;27.90;4.68;;;;;;;6.87;100.00;100011.72;4978986;28;20489;-86
2022/10/11 02:21:46;;;;;;;27.10;4.70;;;;;;;7.06;100.00;100025.63;4996297;28;20030;-87
2022/10/11 02:24:20;;;;;;;34.78;5.75;;;;;;;7.03;100.00;100021.53;4979489;28;20125;-86
2022/10/11 02:26:53;;;;;;;26.63;5.28;;;;;;;7.36;100.00;100047.16;4979092;28;20400;-85
2022/10/11 02:29:22;;;;;;;22.17;6.25;;;;;;;7.25;100.00;100022.91;4979065;28;20425;-87
2022/10/11 02:31:49;;;;;;;32.58;7.13;;;;;;;7.31;100.00;100023.28;4962764;28;20038;-86
2022/10/11 02:34:23;;;;;;;28.52;6.47;;;;;;;7.50;100.00;100033.59;4979212;28;20176;-85
2022/10/11 02:37:03;;;;;;;32.45;8.68;;;;;;;7.55;100.00;100052.25;4972875;28;20085;-84
2022/10/11 02:39:57;;;;;;;37.92;9.43;;;;;;;7.53;100.00;100046.34;4975732;28;20034;-83
2022/10/11 02:42:27;;;;;;;22.73;7.00;;;;;;;7.55;100.00;100051.41;4974440;28;20034;-83
2022/10/11 02:45:01;;;;;;;39.10;8.25;;;;;;;7.45;100.00;100025.38;4993135;28;20480;-85
2022/10/11 02:47:30;;;;;;;20.35;5.80;;;;;;;7.48;100.00;100043.38;4991668;28;20042;-84
2022/10/11 02:49:57;;;;;;;25.10;5.45;;;;;;;7.14;100.00;100012.69;4975329;28;20034;-83
2022/10/11 02:52:22;;;;;;;24.38;6.47;;;;;;;7.23;100.00;100043.13;4974097;28;20035;-84
2022/10/11 02:54:48;;;;;;;30.75;7.03;;;;;;;7.15;100.00;100050.88;4974956;28;20054;-83
2022/10/11 02:57:14;;;;;;;30.25;6.68;;;;;;;7.07;100.00;100037.72;4992187;28;20104;-83
2022/10/11 02:59:39;;;;;;;28.27;7.10;;;;;;;7.12;100.00;100051.97;4958444;28;20121;-83
2022/10/11 03:02:05;;;;;;;28.90;6.53;;;;;;;7.16;100.00;100057.75;4992358;28;20046;-82
2022/10/11 03:04:31;;;;;;;24.23;6.40;;;;;;;7.11;100.00;100054.75;4958445;28;20105;-82
2022/10/11 03:06:57;;;;;;;24.08;7.07;;;;;;;7.09;100.00;100048.88;4974736;28;20484;-82
2022/10/11 03:09:22;;;;;;;21.98;6.15;;;;;;;6.85;100.00;100013.66;4974350;28;20031;-82
2022/10/11 03:11:48;;;;;;;25.40;7.03;;;;;;;6.91;100.00;100033.97;4974610;28;20031;-82
2022/10/11 03:14:13;;;;;;;36.28;7.85;;;;;;;6.56;100.00;99978.13;4974698;28;20448;-81
2022/10/11 03:16:39;;;;;;;32.60;6.97;;;;;;;6.99;100.00;100036.66;4958628;28;20432;-82
2022/10/11 03:19:05;;;;;;;27.65;7.03;;;;;;;7.02;100.00;100039.94;4973795;28;20093;-82
2022/10/11 03:21:30;;;;;;;36.47;7.07;;;;;;;7.07;100.00;100024.66;4958475;28;20029;-82
2022/10/11 03:23:56;;;;;;;25.63;6.47;;;;;;;7.19;100.00;100039.16;4974595;28;20085;-84
2022/10/11 03:26:22;;;;;;;30.25;6.60;;;;;;;7.13;100.00;100031.94;4958630;28;20033;-83
2022/10/11 03:28:48;;;;;;;29.58;6.78;;;;;;;7.21;100.00;100045.06;4974207;28;20117;-81
2022/10/11 03:31:13;;;;;;;26.20;5.97;;;;;;;7.13;100.00;100031.94;4958098;28;20080;-82
2022/10/11 03:33:39;;;;;;;36.63;6.75;;;;;;;7.12;100.00;100014.63;4974381;28;20030;-82
2022/10/11 03:36:05;;;;;;;29.20;6.18;;;;;;;7.18;100.00;100021.84;4958141;28;20481;-82
2022/10/11 03:38:31;;;;;;;28.83;5.55;;;;;;;7.20;100.00;100022.53;4974215;28;20038;-83
2022/10/11 03:40:56;;;;;;;37.92;6.53;;;;;;;7.15;100.00;100014.31;4991641;28;20454;-83
2022/10/11 03:43:22;;;;;;;25.05;5.70;;;;;;;7.17;100.00;100032.44;4974030;28;20037;-82
2022/10/11 03:45:47;;;;;;;26.98;6.35;;;;;;;7.22;100.00;100036.25;4974341;28;20022;-83
2022/10/11 03:48:13;;;;;;;24.67;6.93;;;;;;;7.19;100.00;100041.78;4974072;28;20606;-82
2022/10/11 03:50:39;;;;;;;20.60;5.90;;;;;;;7.20;100.00;100040.00;4972055;28;20137;-82
2022/10/11 03:53:05;;;;;;;31.52;6.68;;;;;;;7.17;100.00;100043.72;4958209;28;20405;-83
2022/10/11 03:55:31;;;;;;;25.10;6.15;;;;;;;7.20;100.00;100053.84;4957666;28;20026;-83
2022/10/11 03:57:57;;;;;;;24.33;7.28;;;;;;;7.11;100.00;100054.75;4957875;28;20057;-82
2022/10/11 04:00:23;;;;;;;31.65;7.38;;;;;;;6.91;100.00;100039.19;4958118;28;20030;-83
2022/10/11 04:02:48;;;;;;;25.33;7.95;;;;;;;6.97;100.00;100049.06;4991020;28;20389;-84
2022/10/11 04:05:14;;;;;;;34.88;7.18;;;;;;;6.95;100.00;100044.94;4974482;28;20038;-83
2022/10/11 04:07:40;;;;;;;33.08;8.15;;;;;;;7.05;100.00;100043.09;4974786;28;20048;-84
2022/10/11 04:10:07;;;;;;;38.30;10.95;;;;;;;7.26;100.00;100055.88;4957879;28;20543;-83
2022/10/11 04:12:33;;;;;;;38.75;12.18;;;;;;;7.31;100.00;100060.66;4958324;28;20033;-83
2022/10/11 04:14:59;;;;;;;46.45;11.98;;;;;;;7.36;100.00;100063.63;4974800;28;20064;-82
2022/10/11 04:17:24;;;;;;;26.08;7.43;;;;;;;7.21;100.00;100052.88;4974515;28;20026;-83
2022/10/11 04:19:50;;;;;;;36.47;8.15;;;;;;;7.18;100.00;100066.25;4974721;28;20414;-82
2022/10/11 04:22:16;;;;;;;39.85;12.27;;;;;;;7.22;100.00;100067.59;4973086;28;20077;-83
2022/10/11 04:24:42;;;;;;;35.25;15.40;;;;;;;7.42;100.00;100059.63;4974712;28;20404;-83
2022/10/11 04:27:08;;;;;;;40.70;17.25;;;;;;;7.43;100.00;100045.59;4958528;28;20030;-84
2022/10/11 04:29:33;;;;;;;33.15;15.50;;;;;;;7.63;100.00;100061.13;4974454;28;20084;-83
2022/10/11 04:31:59;;;;;;;36.10;14.88;;;;;;;7.73;100.00;100067.09;4975344;28;20022;-83
2022/10/11 04:34:24;;;;;;;36.08;11.18;;;;;;;7.61;100.00;100052.59;4977476;28;20026;-82
2022/10/11 04:36:50;;;;;;;29.90;7.57;;;;;;;7.76;100.00;100056.34;4977330;28;20066;-83
2022/10/11 04:39:15;;;;;;;24.25;6.03;;;;;;;7.89;100.00;100068.22;4961434;28;20399;-82
2022/10/11 04:41:41;;;;;;;24.98;6.00;;;;;;;7.70;100.00;100047.31;4977461;28;20022;-82
2022/10/11 04:44:06;;;;;;;26.52;6.05;;;;;;;7.76;100.00;100064.19;4961424;28;20109;-82
2022/10/11 04:46:32;;;;;;;24.63;6.32;;;;;;;7.72;100.00;100065.47;4960725;28;20034;-84
2022/10/11 04:48:58;;;;;;;17.85;4.85;;;;;;;7.47;100.00;100036.50;4961197;28;20114;-82
2022/10/11 04:51:24;;;;;;;21.45;5.43;;;;;;;7.58;100.00;100080.69;4977114;28;20118;-83
2022/10/11 04:54:08;;;;;;;28.13;5.18;;;;;;;7.12;100.00;100025.88;4961980;28;20034;-84
2022/10/11 04:56:34;;;;;;;22.98;5.18;;;;;;;7.37;100.00;100080.16;4977101;28;20086;-82
2022/10/11 04:58:59;;;;;;;21.42;4.93;;;;;;;7.19;100.00;100060.06;4994905;28;20030;-83
2022/10/11 05:01:25;;;;;;;25.33;4.90;;;;;;;7.17;100.00;100063.75;4976481;28;20041;-83
2022/10/11 05:03:51;;;;;;;22.17;5.15;;;;;;;7.17;100.00;100059.38;4994459;28;20038;-83
2022/10/11 05:06:17;;;;;;;27.80;5.43;;;;;;;7.18;100.00;100074.06;4961121;28;20121;-82
2022/10/11 05:08:43;;;;;;;34.08;5.97;;;;;;;7.24;100.00;100089.16;4961068;28;20030;-83
2022/10/11 05:11:11;;;;;;;23.80;5.40;;;;;;;7.13;100.00;100077.13;4960756;28;20396;-83
2022/10/11 05:13:38;;;;;;;28.25;5.45;;;;;;;7.25;100.00;100090.78;4994590;28;20041;-82
2022/10/11 05:16:04;;;;;;;31.27;6.47;;;;;;;7.25;100.00;100077.72;4994200;28;20034;-82
2022/10/11 05:18:30;;;;;;;23.00;5.40;;;;;;;7.36;100.00;100083.72;4957780;28;20540;-82
2022/10/11 05:21:15;;;;;;;33.88;6.22;;;;;;;7.34;100.00;100072.63;4973451;28;20026;-82
2022/10/11 05:23:41;;;;;;;24.05;5.32;;;;;;;7.32;100.00;100079.78;4973695;28;20034;-83
2022/10/11 05:26:06;;;;;;;26.50;5.63;;;;;;;7.22;100.00;100057.16;4973277;28;20082;-83
2022/10/11 05:28:32;;;;;;;28.95;5.88;;;;;;;7.42;100.00;100067.47;4974557;28;20031;-83
2022/10/11 05:30:58;;;;;;;24.60;5.82;;;;;;;7.58;100.00;100078.06;4957416;28;20538;-82
2022/10/11 05:33:24;;;;;;;22.40;4.93;;;;;;;7.67;100.00;100086.81;4973481;28;20038;-82
2022/10/11 05:35:49;;;;;;;26.30;5.65;;;;;;;7.50;100.00;100069.34;4974093;28;20042;-83
2022/10/11 05:38:18;;;;;;;36.08;6.15;;;;;;;7.75;100.00;100086.06;4973548;28;20062;-82
2022/10/11 05:40:44;;;;;;;34.08;5.90;;;;;;;7.72;100.00;100068.88;4973177;28;20043;-82
2022/10/11 05:43:09;;;;;;;40.05;6.50;;;;;;;7.76;100.00;100082.47;4973040;28;20088;-82
2022/10/11 05:45:39;;;;;;;24.33;4.85;;;;;;;7.65;100.00;100077.47;4956633;28;20031;-82
2022/10/11 05:48:05;;;;;;;30.52;5.55;;;;;;;7.55;100.00;100088.00;4956473;28;20505;-83
2022/10/11 05:50:31;;;;;;;28.33;5.30;;;;;;;7.54;100.00;100076.72;4957342;28;20055;-82
2022/10/11 05:52:57;;;;;;;37.10;5.68;;;;;;;7.63;100.00;100087.25;4956791;28;20023;-81
2022/10/11 05:55:23;;;;;;;17.92;4.93;;;;;;;7.58;100.00;100104.19;4972852;28;20034;-81
2022/10/11 05:57:53;;;;;;;37.20;6.45;;;;;;;7.48;100.00;100093.00;4972399;28;20035;-82
2022/10/11 06:00:19;;;;;;;36.78;6.88;;;;;;;7.52;100.00;100089.13;4971705;28;20029;-82
2022/10/11 06:02:44;;;;;;;25.65;6.57;;;;;;;7.42;100.00;100090.97;4956557;28;20500;-83
2022/10/11 06:05:10;;;;;;;30.67;7.30;;;;;;;7.40;100.00;100098.97;4972822;28;20425;-82
2022/10/11 06:07:37;;;;;;;47.72;8.50;;;;;;;7.35;100.00;100082.09;4957006;28;20027;-83
2022/10/11 06:10:03;;;;;;;27.15;8.00;;;;;;;7.36;100.00;100094.19;4972774;28;20125;-82
2022/10/11 06:12:29;;;;;;;22.50;7.22;;;;;;;7.31;100.00;100089.38;4973298;28;20046;-82
2022/10/11 06:14:56;;;;;;;36.72;8.68;;;;;;;7.19;100.00;100072.31;4972506;28;20030;-81
2022/10/11 06:17:22;;;;;;;34.58;7.72;;;;;;;7.28;100.00;100081.84;4973573;28;20041;-84
2022/10/11 06:19:48;;;;;;;35.90;7.75;;;;;;;7.38;100.00;100081.78;4972607;28;20493;-82
2022/10/11 06:22:14;;;;;;;37.22;7.90;;;;;;;7.31;100.00;100088.59;4972389;28;20393;-82
2022/10/11 06:24:39;;;;;;;33.70;8.63;;;;;;;7.28;100.00;100087.91;4956421;28;20039;-82
2022/10/11 06:27:05;;;;;;;26.95;8.48;;;;;;;7.35;100.00;100090.72;4972830;28;20023;-84
2022/10/11 06:29:31;;;;;;;35.03;9.57;;;;;;;7.33;100.00;100102.31;4973591;28;20022;-82
2022/10/11 06:31:57;;;;;;;36.45;8.73;;;;;;;7.33;100.00;100094.47;4972139;28;20029;-82
2022/10/11 06:34:23;;;;;;;26.40;7.57;;;;;;;7.41;100.00;100102.38;4955943;28;20469;-82
2022/10/11 06:36:49;;;;;;;25.95;8.27;;;;;;;7.41;100.00;100107.63;4972559;28;20428;-91
2022/10/11 06:39:14;;;;;;;27.95;9.00;;;;;;;7.06;100.00;100073.47;4979325;28;20054;-88
2022/10/11 06:41:40;;;;;;;29.60;9.32;;;;;;;7.23;100.00;100077.06;4979625;28;20037;-92
2022/10/11 06:44:05;;;;;;;33.45;9.60;;;;;;;7.24;100.00;100081.31;4974622;28;20039;-85
2022/10/11 06:46:32;;;;;;;31.17;10.77;;;;;;;7.34;100.00;100117.81;4973114;28;20073;-84
2022/10/11 06:48:59;;;;;;;31.00;9.73;;;;;;;7.37;100.00;100106.28;4956075;28;20074;-84
2022/10/11 06:51:27;;;;;;;30.42;8.32;;;;;;;7.43;100.00;100118.72;4956181;28;20042;-86
2022/10/11 06:53:56;;;;;;;22.33;8.30;;;;;;;7.52;100.00;100125.69;4972686;28;20074;-84
2022/10/11 06:56:23;;;;;;;27.90;9.05;;;;;;;7.54;100.00;100122.94;4970811;28;20065;-82
2022/10/11 06:58:50;;;;;;;24.73;10.25;;;;;;;7.65;100.00;100117.50;4971102;28;20042;-81
2022/10/11 07:01:18;;;;;;;26.08;9.63;;;;;;;7.79;100.00;100118.75;4971259;28;20038;-81
2022/10/11 07:03:44;;;;;;;23.85;9.80;;;;;;;7.76;100.00;100089.47;4970737;28;20041;-82
2022/10/11 07:06:13;;;;;;;33.90;9.63;;;;;;;7.94;100.00;100097.31;4955033;28;20026;-82
2022/10/11 07:08:39;;;;;;;24.92;9.77;;;;;;;7.98;100.00;100088.22;4971471;28;20121;-82
2022/10/11 07:11:13;;;;;;;25.17;10.00;;;;;;;8.02;100.00;100092.16;4971423;28;20367;-82
2022/10/11 07:13:40;;;;;;;28.95;10.88;;;;;;;8.07;100.00;100089.94;4970259;28;20088;-80
2022/10/11 07:16:08;;;;;;;41.83;11.73;;;;;;;8.08;100.00;100096.78;4953231;28;20110;-82
2022/10/11 07:18:34;;;;;;;22.00;9.80;;;;;;;8.14;100.00;100103.19;4956437;28;20188;-83
2022/10/11 07:21:05;;;;;;;26.58;10.18;;;;;;;8.26;100.00;100109.03;4956681;28;20118;-83
2022/10/11 07:23:32;;;;;;;27.60;10.00;;;;;;;8.19;100.00;100105.34;4972983;28;20049;-85
2022/10/11 07:25:58;;;;;;;24.42;8.45;;;;;;;8.26;100.00;100109.03;4956458;28;20173;-83
2022/10/11 07:28:24;;;;;;;24.45;7.80;;;;;;;8.29;100.00;100103.47;4972321;28;20148;-82
2022/10/11 07:30:50;;;;;;;19.95;6.85;;;;;;;8.33;100.00;100090.91;4955635;28;20026;-82
2022/10/11 07:33:16;;;;;;;27.25;8.88;;;;;;;8.50;100.00;100107.56;4973063;28;20499;-83
2022/10/11 07:35:42;;;;;;;32.35;9.30;;;;;;;8.48;100.00;100085.94;4955721;28;20034;-83
2022/10/11 07:38:07;;;;;;;19.70;6.57;;;;;;;8.63;100.00;100099.28;4972151;28;20027;-83
2022/10/11 07:40:43;;;;;;;18.63;6.28;;;;;;;8.78;100.00;100115.22;4971847;28;20370;-84
2022/10/11 07:43:13;;;;;;;32.10;9.45;;;;;;;8.58;100.00;100076.19;4971905;28;20056;-82
2022/10/11 07:45:39;;;;;;;16.33;6.88;;;;;;;8.88;100.00;100113.34;4971570;28;20437;-82
2022/10/11 07:48:05;;;;;;;21.67;7.97;;;;;;;8.98;100.00;100115.81;4972023;28;20421;-81
2022/10/11 07:50:31;;;;;;;21.27;7.28;;;;;;;8.95;100.00;100108.28;4972781;28;20038;-82
2022/10/11 07:52:57;;;;;;;19.30;7.03;;;;;;;9.18;100.00;100126.06;4972828;28;20080;-81
2022/10/11 07:55:24;;;;;;;22.45;7.53;;;;;;;9.17;100.00;100114.75;4955473;28;20114;-82
2022/10/11 07:57:50;;;;;;;22.40;7.18;;;;;;;9.18;100.00;100116.38;4971693;28;20030;-81
2022/10/11 08:00:15;;;;;;;28.27;6.78;;;;;;;9.26;100.00;100108.56;4970632;28;20027;-81
2022/10/11 08:02:41;;;;;;;20.40;6.80;;;;;;;9.55;100.00;100138.75;4955040;28;20031;-80
2022/10/11 08:05:07;;;;;;;22.40;6.95;;;;;;;9.73;100.00;100129.94;4971690;28;20031;-81
2022/10/11 08:07:32;;;;;;;21.15;6.10;;;;;;;9.76;100.00;100129.63;4975896;28;20030;-81
2022/10/11 08:09:58;;;;;;;12.73;6.07;;;;;;;9.82;100.00;100130.78;4958765;28;20377;-80
2022/10/11 08:12:24;;;;;;;20.77;5.25;;;;;;;9.81;100.00;100116.81;4976501;28;20047;-81
2022/10/11 08:14:53;;;;;;;12.70;5.07;;;;;;;9.84;100.00;100126.19;4974166;28;20499;-80
2022/10/11 08:17:18;;;;;;;19.52;4.50;;;;;;;10.14;100.00;100129.16;4959159;28;20030;-88
2022/10/11 08:19:44;;;;;;;17.80;4.00;;;;;;;10.36;100.00;100111.91;4962220;28;20082;-87
2022/10/11 08:22:10;;;;;;;150.63;18.05;;;;;;;10.42;100.00;100126.19;4976805;28;20385;-81
2022/10/11 08:24:35;;;;;;;150.18;21.08;;;;;;;10.51;100.00;100111.25;4957645;28;20046;-81
2022/10/11 08:27:01;;;;;;;130.27;17.50;;;;;;;10.65;100.00;100128.94;4973811;28;20034;-81
2022/10/11 08:29:26;;;;;;;34.85;6.28;;;;;;;10.57;100.00;100121.06;4974339;28;20366;-80
2022/10/11 08:31:52;;;;;;;25.30;6.10;;;;;;;10.74;100.00;100128.91;4975308;28;20130;-81
2022/10/11 08:34:17;;;;;;;21.05;6.63;;;;;;;10.73;100.00;100135.16;4973542;28;20113;-81
2022/10/11 08:36:43;;;;;;;25.38;7.30;;;;;;;10.76;100.00;100137.44;4973889;28;20030;-81
2022/10/11 08:39:09;;;;;;;21.48;9.25;;;;;;;10.61;100.00;100132.06;4973315;28;20167;-87
2022/10/11 08:41:42;;;;;;;34.08;13.88;;;;;;;10.53;100.00;100130.28;4974879;28;20031;-87
2022/10/11 08:44:27;;;;;;;;;;;;;;;10.81;100.00;100135.16;4974067;28;20031;-88
2022/10/11 08:46:58;;;;;;;;;;;;;;;10.66;100.00;100135.00;4941779;28;19922;-89
2022/10/11 08:49:28;;;;;;;21.33;9.88;;;;;;;10.91;100.00;100140.22;4973306;28;20384;-88
2022/10/11 08:52:01;;;;;;;23.38;7.03;;;;;;;10.63;100.00;100130.94;4956935;28;20030;-87
2022/10/11 08:54:51;;;;;;;32.65;6.55;;;;;;;10.66;100.00;100146.34;4956778;28;20042;-87
2022/10/11 08:57:21;;;;;;;25.98;8.18;;;;;;;10.72;100.00;100139.59;4974459;28;20458;-89
2022/10/11 08:59:50;;;;;;;15.18;4.95;;;;;;;10.79;100.00;100132.69;4957905;28;20560;-90
2022/10/11 09:02:15;;;;;;;31.88;6.03;;;;;;;10.50;100.00;100144.53;4975627;28;20026;-89
2022/10/11 09:04:41;;;;;;;16.55;4.13;;;;;;;10.43;100.00;100143.59;4975505;28;20034;-88
2022/10/11 09:07:39;;;;;;;15.10;4.63;;;;;;;10.57;100.00;100140.28;4975951;28;20023;-89
2022/10/11 09:10:47;;;;;;;16.20;4.18;;;;;;;10.55;100.00;100123.88;4943574;28;20047;-88
2022/10/11 09:13:40;;;;;;;19.80;4.05;;;;;;;10.75;100.00;100127.94;4958112;28;20050;-89
2022/10/11 09:16:21;;;;;;;150.18;17.95;;;;;;;10.61;100.00;100137.31;4959594;28;20487;-90
2022/10/11 09:19:08;;;;;;;37.83;6.97;;;;;;;10.86;100.00;100141.50;4979279;28;20042;-89
2022/10/11 09:21:40;;;;;;;17.75;5.32;;;;;;;10.80;100.00;100136.13;4962380;28;20034;-88
2022/10/11 09:24:46;;;;;;;49.50;22.55;;;;;;;10.96;100.00;100141.31;4964409;28;20066;-89
2022/10/11 09:27:30;;;;;;;28.48;9.80;;;;;;;10.83;100.00;100120.03;4965312;28;20041;-90
2022/10/11 09:30:08;;;;;;;15.07;3.42;;;;;;;11.15;100.00;100136.66;4966201;28;20477;-88
2022/10/11 09:32:38;;;;;;;13.90;3.25;;;;;;;11.16;100.00;100135.66;4981634;28;20476;-89
2022/10/11 09:35:19;;;;;;;10.82;2.75;;;;;;;11.19;100.00;100124.81;4965191;28;20030;-90
2022/10/11 09:38:03;;;;;;;9.90;3.45;;;;;;;11.28;100.00;100123.78;4981935;28;20056;-88
2022/10/11 09:40:50;;;;;;;10.32;2.78;;;;;;;11.66;100.00;100111.75;4963280;28;20037;-89
2022/10/11 09:43:16;;;;;;;13.05;3.55;;;;;;;11.52;100.00;100103.59;4965537;28;20031;-90
2022/10/11 09:45:44;;;;;;;16.85;2.80;;;;;;;11.81;100.00;100138.94;4965895;28;20032;-89
2022/10/11 09:48:17;;;;;;;12.70;3.35;;;;;;;12.02;100.00;100136.66;4965505;28;20018;-88
2022/10/11 09:50:44;;;;;;;13.98;2.78;;;;;;;11.61;100.00;100112.25;4964848;28;20026;-89
2022/10/11 09:53:09;;;;;;;9.07;2.50;;;;;;;11.60;100.00;100117.69;4964970;28;20048;-88
2022/10/11 09:55:50;;;;;;;17.88;3.10;;;;;;;11.68;100.00;100118.44;4965071;28;20098;-89
2022/10/11 09:58:44;;;;;;;19.92;2.90;;;;;;;12.08;100.00;100139.41;4964928;28;20088;-90
2022/10/11 10:01:20;;;;;;;14.45;2.85;;;;;;;11.76;100.00;100138.59;4976354;28;20048;-88
2022/10/11 10:03:46;;;;;;;10.70;2.80;;;;;;;11.71;100.00;100112.03;4980854;28;20049;-90
2022/10/11 10:06:26;;;;;;;16.42;2.97;;;;;;;11.95;100.00;100118.09;4974868;28;20030;-88
2022/10/11 10:08:51;;;;;;;14.27;3.17;;;;;;;12.02;100.00;100140.13;4964973;28;20396;-89
2022/10/11 10:11:18;;;;;;;13.52;3.17;;;;;;;11.99;100.00;100141.25;4964768;28;20065;-88
2022/10/11 10:13:49;;;;;;;17.23;3.63;;;;;;;11.81;100.00;100149.44;4981172;28;20141;-90
2022/10/11 10:16:36;;;;;;;16.88;3.42;;;;;;;11.74;100.00;100137.97;4980822;28;20038;-89
2022/10/11 10:19:05;;;;;;;12.43;2.88;;;;;;;11.80;100.00;100132.03;4980921;28;20072;-89
2022/10/11 10:21:49;;;;;;;19.60;3.00;;;;;;;11.93;100.00;100146.38;4981217;28;20054;-88
2022/10/11 10:24:31;;;;;;;13.07;3.03;;;;;;;11.84;100.00;100135.94;4980224;28;20523;-89
2022/10/11 10:27:15;;;;;;;15.80;3.17;;;;;;;12.05;100.00;100149.44;4980272;28;20049;-89
2022/10/11 10:29:58;;;;;;;15.25;4.07;;;;;;;12.07;100.00;100148.28;4978854;28;20112;-88
2022/10/11 10:32:32;;;;;;;20.33;3.53;;;;;;;12.15;100.00;100131.63;4995579;28;21352;-89
2022/10/11 10:35:29;;;;;;;58.13;9.50;;;;;;;12.13;100.00;100144.94;4978161;28;20038;-89
2022/10/11 10:38:03;;;;;;;23.73;4.03;;;;;;;12.48;100.00;100143.66;4977258;28;20377;-89
2022/10/11 10:41:00;;;;;;;14.40;3.22;;;;;;;12.65;100.00;100134.59;4975998;28;20073;-88
2022/10/11 10:43:36;;;;;;;12.02;2.85;;;;;;;12.51;100.00;100138.03;4962887;28;20038;-89
2022/10/11 10:46:08;;;;;;;15.40;3.08;;;;;;;12.32;100.00;100139.38;4977909;28;20376;-89
2022/10/11 10:49:03;;;;;;;18.63;3.65;;;;;;;12.54;100.00;100142.94;4961812;28;20045;-89
2022/10/11 10:51:32;;;;;;;13.55;3.75;;;;;;;12.65;100.00;100145.13;4978610;28;20113;-89
2022/10/11 10:54:13;;;;;;;19.63;3.25;;;;;;;12.35;100.00;100139.00;4978520;28;20050;-89
2022/10/11 10:57:04;;;;;;;14.43;3.78;;;;;;;12.81;100.00;100128.31;4995888;28;20034;-89
2022/10/11 10:59:59;;;;;;;10.05;2.58;;;;;;;12.94;100.00;100135.59;4968059;28;20132;-89
2022/10/11 11:02:50;;;;;;;10.90;2.72;;;;;;;12.84;100.00;100138.50;4962646;28;20030;-88
2022/10/11 11:05:26;;;;;;;12.85;2.60;;;;;;;13.23;100.00;100139.19;4961760;28;20385;-89
2022/10/11 11:08:06;;;;;;;8.20;2.30;;;;;;;12.73;100.00;100133.69;4981252;28;20027;-90
2022/10/11 11:10:39;;;;;;;9.75;2.80;;;;;;;13.27;100.00;100123.84;4979393;28;20027;-88
2022/10/11 11:13:39;;;;;;;17.60;2.90;;;;;;;13.30;100.00;100136.63;4978497;28;20591;-89
2022/10/11 11:16:05;;;;;;;8.88;3.33;;;;;;;13.05;100.00;100131.66;4978460;28;20484;-88
2022/10/11 11:18:42;;;;;;;12.65;2.35;;;;;;;13.36;100.00;100127.16;4965431;28;20074;-88
2022/10/11 11:21:26;;;;;;;14.05;2.67;;;;;;;13.42;100.00;100123.78;4994792;28;20026;-88
2022/10/11 11:24:10;;;;;;;;;;;;;;;13.83;100.00;100119.75;4979754;28;20400;-88
2022/10/11 11:26:46;;;;;;;7.20;2.60;;;;;;;13.50;100.00;100118.41;4979928;28;19921;-90
2022/10/11 11:29:21;;;;;;;16.45;3.60;;;;;;;13.45;100.00;100120.81;4979610;28;20432;-88
2022/10/11 11:32:04;;;;;;;12.57;2.83;;;;;;;13.51;100.00;100138.50;4963083;28;20038;-87